DAL8485 KBNA-KLGA
Flight info
| Callsign | DAL8485 |
|---|---|
| Flight time | N/A |
| Altitude | 33000 |
| Route | KRSTA4 OLSIE IIU Q139 CREEP Q29 WWSHR TEESY Q186 WEVEL ETG MIP4 |
| Aircraft | E75L/M-SDE3GILORVW/S |
Departure
| Time | 2026-05-06 00:21 |
|---|---|
| Airport | Nashville International Airport (KBNA) |
Arrival
| Time | N/A |
|---|---|
| Airport | LaGuardia Airport (KLGA) |
| Time | Latitude | Longitude | Altitude | Speed | Heading |
|---|---|---|---|---|---|
| 2026-05-05 23:40 | 36.13470 | -86.66956 | 605 ft | 0 kts | 129° |
| 2026-05-06 00:06 | 36.13473 | -86.66960 | 606 ft | 2 kts | 126° |
| 2026-05-06 00:06 | 36.13480 | -86.66975 | 606 ft | 2 kts | 124° |
| 2026-05-06 00:07 | 36.13489 | -86.66991 | 606 ft | 2 kts | 124° |
| 2026-05-06 00:07 | 36.13497 | -86.67006 | 607 ft | 2 kts | 124° |
| 2026-05-06 00:07 | 36.13506 | -86.67021 | 606 ft | 2 kts | 124° |
| 2026-05-06 00:07 | 36.13515 | -86.67037 | 606 ft | 2 kts | 124° |
| 2026-05-06 00:08 | 36.13522 | -86.67047 | 606 ft | 1 kts | 159° |
| 2026-05-06 00:08 | 36.13530 | -86.67048 | 606 ft | 0 kts | 210° |
| 2026-05-06 00:08 | 36.13536 | -86.67043 | 606 ft | 0 kts | 200° |
| 2026-05-06 00:13 | 36.13519 | -86.67051 | 606 ft | 2 kts | 199° |
| 2026-05-06 00:13 | 36.13493 | -86.67064 | 606 ft | 8 kts | 202° |
| 2026-05-06 00:13 | 36.13450 | -86.67139 | 606 ft | 15 kts | 275° |
| 2026-05-06 00:13 | 36.13483 | -86.67303 | 606 ft | 21 kts | 283° |
| 2026-05-06 00:14 | 36.13518 | -86.67462 | 606 ft | 15 kts | 296° |
| 2026-05-06 00:14 | 36.13555 | -86.67586 | 606 ft | 15 kts | 288° |
| 2026-05-06 00:14 | 36.13586 | -86.67712 | 606 ft | 12 kts | 293° |
| 2026-05-06 00:14 | 36.13652 | -86.67723 | 606 ft | 10 kts | 18° |
| 2026-05-06 00:15 | 36.13721 | -86.67701 | 606 ft | 9 kts | 336° |
| 2026-05-06 00:15 | 36.13746 | -86.67748 | 606 ft | 0 kts | 287° |
| 2026-05-06 00:18 | 36.13747 | -86.67748 | 606 ft | 0 kts | 287° |
| 2026-05-06 00:19 | 36.13749 | -86.67759 | 606 ft | 1 kts | 286° |
| 2026-05-06 00:19 | 36.13754 | -86.67778 | 606 ft | 2 kts | 285° |
| 2026-05-06 00:19 | 36.13760 | -86.67805 | 606 ft | 3 kts | 285° |
| 2026-05-06 00:19 | 36.13765 | -86.67838 | 606 ft | 3 kts | 255° |
| 2026-05-06 00:20 | 36.13621 | -86.67919 | 606 ft | 52 kts | 197° |
| 2026-05-06 00:20 | 36.13087 | -86.68130 | 606 ft | 106 kts | 197° |
| 2026-05-06 00:20 | 36.12224 | -86.68466 | 616 ft | 147 kts | 197° |
| 2026-05-06 00:20 | 36.11256 | -86.68868 | 1028 ft | 149 kts | 197° |
| 2026-05-06 00:21 | 36.10264 | -86.69118 | 1591 ft | 146 kts | 191° |
| 2026-05-06 00:21 | 36.09346 | -86.69511 | 2173 ft | 137 kts | 202° |
| 2026-05-06 00:21 | 36.08531 | -86.70121 | 2729 ft | 144 kts | 221° |
| 2026-05-06 00:21 | 36.08000 | -86.71275 | 3089 ft | 171 kts | 247° |
| 2026-05-06 00:22 | 36.07685 | -86.72796 | 3402 ft | 192 kts | 246° |
| 2026-05-06 00:22 | 36.07254 | -86.74397 | 3871 ft | 202 kts | 244° |
| 2026-05-06 00:22 | 36.06737 | -86.76044 | 4420 ft | 213 kts | 245° |
| 2026-05-06 00:22 | 36.06643 | -86.77986 | 4709 ft | 249 kts | 277° |
| 2026-05-06 00:23 | 36.07118 | -86.80098 | 5417 ft | 255 kts | 279° |
| 2026-05-06 00:23 | 36.07562 | -86.82124 | 6503 ft | 243 kts | 279° |
| 2026-05-06 00:23 | 36.07982 | -86.84107 | 7330 ft | 241 kts | 279° |
| 2026-05-06 00:23 | 36.08534 | -86.86088 | 7927 ft | 255 kts | 297° |
| 2026-05-06 00:24 | 36.09941 | -86.87527 | 8487 ft | 282 kts | 331° |
| 2026-05-06 00:24 | 36.11942 | -86.87802 | 9104 ft | 307 kts | 3° |
| 2026-05-06 00:24 | 36.13997 | -86.86977 | 9745 ft | 315 kts | 12° |
| 2026-05-06 00:24 | 36.16069 | -86.86180 | 10427 ft | 313 kts | 8° |
| 2026-05-06 00:25 | 36.18201 | -86.85478 | 10939 ft | 319 kts | 7° |
| 2026-05-06 00:25 | 36.20365 | -86.84816 | 11421 ft | 326 kts | 6° |
| 2026-05-06 00:25 | 36.22611 | -86.84148 | 11888 ft | 333 kts | 6° |
| 2026-05-06 00:25 | 36.24877 | -86.83483 | 12349 ft | 340 kts | 6° |
| 2026-05-06 00:26 | 36.27186 | -86.82807 | 12890 ft | 343 kts | 6° |
| 2026-05-06 00:26 | 36.29528 | -86.82124 | 13474 ft | 345 kts | 6° |
| 2026-05-06 00:26 | 36.31839 | -86.81450 | 14023 ft | 347 kts | 6° |
| 2026-05-06 00:26 | 36.34135 | -86.80302 | 14581 ft | 364 kts | 30° |
| 2026-05-06 00:27 | 36.35981 | -86.78108 | 15118 ft | 375 kts | 44° |
| 2026-05-06 00:27 | 36.37707 | -86.75702 | 15640 ft | 377 kts | 43° |
| 2026-05-06 00:27 | 36.39469 | -86.73257 | 16131 ft | 380 kts | 44° |
| 2026-05-06 00:27 | 36.41219 | -86.70828 | 16626 ft | 383 kts | 43° |
| 2026-05-06 00:28 | 36.43013 | -86.68339 | 17150 ft | 385 kts | 43° |
| 2026-05-06 00:28 | 36.44796 | -86.65863 | 17641 ft | 386 kts | 43° |
| 2026-05-06 00:28 | 36.46574 | -86.63391 | 18120 ft | 388 kts | 44° |
| 2026-05-06 00:28 | 36.48371 | -86.60892 | 18561 ft | 392 kts | 43° |
| 2026-05-06 00:29 | 36.50203 | -86.58343 | 18998 ft | 396 kts | 43° |
| 2026-05-06 00:29 | 36.52034 | -86.55794 | 19422 ft | 399 kts | 43° |
| 2026-05-06 00:29 | 36.53876 | -86.53226 | 19882 ft | 401 kts | 43° |
| 2026-05-06 00:29 | 36.55736 | -86.50631 | 20317 ft | 403 kts | 43° |
| 2026-05-06 00:30 | 36.57661 | -86.48103 | 20704 ft | 400 kts | 32° |
| 2026-05-06 00:30 | 36.60036 | -86.46416 | 21090 ft | 390 kts | 16° |
| 2026-05-06 00:30 | 36.62547 | -86.45099 | 21489 ft | 392 kts | 15° |
| 2026-05-06 00:30 | 36.65060 | -86.43801 | 21889 ft | 395 kts | 15° |
| 2026-05-06 00:31 | 36.67619 | -86.42487 | 22255 ft | 398 kts | 15° |
| 2026-05-06 00:31 | 36.70153 | -86.41186 | 22678 ft | 399 kts | 15° |
| 2026-05-06 00:31 | 36.72722 | -86.39841 | 23022 ft | 404 kts | 18° |
| 2026-05-06 00:31 | 36.75238 | -86.38242 | 23441 ft | 407 kts | 19° |
| 2026-05-06 00:32 | 36.77753 | -86.36618 | 23785 ft | 410 kts | 20° |
| 2026-05-06 00:32 | 36.80324 | -86.34956 | 24148 ft | 413 kts | 20° |
| 2026-05-06 00:32 | 36.82866 | -86.33312 | 24460 ft | 416 kts | 20° |
| 2026-05-06 00:32 | 36.85447 | -86.31641 | 24798 ft | 418 kts | 20° |
| 2026-05-06 00:33 | 36.88013 | -86.29979 | 25075 ft | 422 kts | 20° |
| 2026-05-06 00:33 | 36.90630 | -86.28282 | 25419 ft | 423 kts | 19° |
| 2026-05-06 00:33 | 36.93235 | -86.26592 | 25808 ft | 423 kts | 19° |
| 2026-05-06 00:33 | 36.95887 | -86.24869 | 26116 ft | 426 kts | 19° |
| 2026-05-06 00:34 | 36.98493 | -86.23176 | 26434 ft | 428 kts | 19° |
| 2026-05-06 00:34 | 37.01125 | -86.21464 | 26746 ft | 429 kts | 19° |
| 2026-05-06 00:34 | 37.03782 | -86.19735 | 27013 ft | 432 kts | 19° |
| 2026-05-06 00:34 | 37.06464 | -86.17989 | 27316 ft | 434 kts | 18° |
| 2026-05-06 00:35 | 37.09141 | -86.16242 | 27609 ft | 436 kts | 18° |
| 2026-05-06 00:35 | 37.11810 | -86.14501 | 27930 ft | 436 kts | 18° |
| 2026-05-06 00:35 | 37.14502 | -86.12743 | 28234 ft | 438 kts | 18° |
| 2026-05-06 00:35 | 37.17207 | -86.10975 | 28519 ft | 439 kts | 18° |
| 2026-05-06 00:36 | 37.19915 | -86.09205 | 28750 ft | 442 kts | 18° |
| 2026-05-06 00:36 | 37.22640 | -86.07421 | 29003 ft | 444 kts | 18° |
| 2026-05-06 00:36 | 37.25440 | -86.05770 | 29259 ft | 440 kts | 13° |
| 2026-05-06 00:36 | 37.28267 | -86.04215 | 29496 ft | 443 kts | 13° |
| 2026-05-06 00:37 | 37.31060 | -86.02658 | 29762 ft | 445 kts | 13° |
| 2026-05-06 00:37 | 37.33907 | -86.01065 | 30058 ft | 446 kts | 13° |
| 2026-05-06 00:37 | 37.36702 | -85.99498 | 30384 ft | 445 kts | 13° |
| 2026-05-06 00:37 | 37.39554 | -85.97899 | 30637 ft | 447 kts | 13° |
| 2026-05-06 00:38 | 37.42389 | -85.96307 | 30909 ft | 447 kts | 13° |
| 2026-05-06 00:38 | 37.45214 | -85.94720 | 31176 ft | 448 kts | 13° |
| 2026-05-06 00:38 | 37.48094 | -85.93101 | 31356 ft | 451 kts | 13° |
| 2026-05-06 00:38 | 37.50937 | -85.91499 | 31646 ft | 451 kts | 13° |
| 2026-05-06 00:39 | 37.53825 | -85.89873 | 31847 ft | 453 kts | 13° |
| 2026-05-06 00:39 | 37.56691 | -85.88256 | 32146 ft | 453 kts | 13° |
| 2026-05-06 00:39 | 37.59550 | -85.86642 | 32493 ft | 451 kts | 12° |
| 2026-05-06 00:39 | 37.62390 | -85.85038 | 32871 ft | 448 kts | 12° |
| 2026-05-06 00:40 | 37.65252 | -85.83422 | 32941 ft | 453 kts | 12° |
| 2026-05-06 00:40 | 37.71080 | -85.80125 | 32966 ft | 464 kts | 12° |
| 2026-05-06 00:41 | 37.77013 | -85.76761 | 32962 ft | 474 kts | 13° |
| 2026-05-06 00:41 | 37.83028 | -85.73342 | 32955 ft | 475 kts | 12° |
| 2026-05-06 00:42 | 37.89072 | -85.69904 | 32953 ft | 477 kts | 12° |
| 2026-05-06 00:42 | 37.95126 | -85.66453 | 32950 ft | 478 kts | 13° |
| 2026-05-06 00:43 | 38.01167 | -85.63002 | 32953 ft | 476 kts | 13° |
| 2026-05-06 00:43 | 38.07205 | -85.59547 | 32950 ft | 474 kts | 12° |
| 2026-05-06 00:44 | 38.13208 | -85.55849 | 32963 ft | 485 kts | 17° |
| 2026-05-06 00:44 | 38.19076 | -85.51825 | 32958 ft | 479 kts | 17° |
| 2026-05-06 00:45 | 38.24956 | -85.47824 | 32955 ft | 479 kts | 17° |
| 2026-05-06 00:45 | 38.30876 | -85.43789 | 32955 ft | 484 kts | 17° |
| 2026-05-06 00:46 | 38.36791 | -85.39751 | 32957 ft | 483 kts | 17° |
| 2026-05-06 00:46 | 38.42709 | -85.35702 | 32954 ft | 485 kts | 16° |
| 2026-05-06 00:47 | 38.48626 | -85.31646 | 32817 ft | 482 kts | 17° |
| 2026-05-06 00:47 | 38.54525 | -85.27595 | 32820 ft | 484 kts | 17° |
| 2026-05-06 00:48 | 38.60457 | -85.23513 | 32820 ft | 481 kts | 17° |
| 2026-05-06 00:48 | 38.66388 | -85.19427 | 32815 ft | 484 kts | 17° |
| 2026-05-06 00:49 | 38.72308 | -85.15337 | 32820 ft | 485 kts | 17° |
| 2026-05-06 00:49 | 38.78188 | -85.11268 | 32813 ft | 483 kts | 17° |
| 2026-05-06 00:50 | 38.84118 | -85.07156 | 32812 ft | 485 kts | 17° |
| 2026-05-06 00:50 | 38.90026 | -85.03052 | 32810 ft | 486 kts | 17° |
| 2026-05-06 00:51 | 38.95965 | -84.98918 | 32809 ft | 487 kts | 17° |
| 2026-05-06 00:51 | 39.01890 | -84.94782 | 32809 ft | 481 kts | 17° |
| 2026-05-06 00:52 | 39.06779 | -84.91370 | 32812 ft | 482 kts | 17° |
| 2026-05-06 00:52 | 39.13669 | -84.86547 | 32822 ft | 485 kts | 17° |
| 2026-05-06 00:53 | 39.19608 | -84.82381 | 32826 ft | 484 kts | 17° |
| 2026-05-06 00:53 | 39.25490 | -84.78249 | 32829 ft | 485 kts | 17° |
| 2026-05-06 00:54 | 39.31374 | -84.74104 | 32835 ft | 483 kts | 16° |
| 2026-05-06 00:54 | 39.37284 | -84.69935 | 32837 ft | 485 kts | 17° |
| 2026-05-06 00:55 | 39.43171 | -84.65773 | 32840 ft | 484 kts | 16° |
| 2026-05-06 00:55 | 39.49050 | -84.61609 | 32840 ft | 482 kts | 16° |
| 2026-05-06 00:56 | 39.54917 | -84.57446 | 32846 ft | 481 kts | 17° |
| 2026-05-06 00:56 | 39.60803 | -84.53263 | 32843 ft | 484 kts | 17° |
| 2026-05-06 00:57 | 39.66698 | -84.49062 | 32849 ft | 484 kts | 17° |
| 2026-05-06 00:57 | 39.72586 | -84.44860 | 32847 ft | 483 kts | 16° |
| 2026-05-06 00:58 | 39.78460 | -84.40659 | 32847 ft | 482 kts | 16° |
| 2026-05-06 00:58 | 39.84323 | -84.36456 | 32850 ft | 483 kts | 17° |
| 2026-05-06 00:59 | 39.90174 | -84.32241 | 32823 ft | 487 kts | 19° |
| 2026-05-06 00:59 | 39.93026 | -84.29651 | 32833 ft | 503 kts | 28° |
| 2026-05-06 00:59 | 39.95609 | -84.26525 | 32834 ft | 511 kts | 35° |
| 2026-05-06 01:00 | 40.00662 | -84.20064 | 32825 ft | 510 kts | 34° |
| 2026-05-06 01:00 | 40.05725 | -84.13652 | 32817 ft | 509 kts | 34° |
| 2026-05-06 01:01 | 40.10816 | -84.07192 | 32821 ft | 507 kts | 34° |
| 2026-05-06 01:01 | 40.15868 | -84.00769 | 32816 ft | 513 kts | 34° |
| 2026-05-06 01:02 | 40.20913 | -83.94339 | 32823 ft | 509 kts | 34° |
| 2026-05-06 01:02 | 40.25997 | -83.87846 | 32830 ft | 509 kts | 34° |
| 2026-05-06 01:03 | 40.31023 | -83.81413 | 32841 ft | 508 kts | 34° |
| 2026-05-06 01:03 | 40.36086 | -83.74918 | 32845 ft | 509 kts | 34° |
| 2026-05-06 01:04 | 40.41129 | -83.68434 | 32853 ft | 510 kts | 34° |
| 2026-05-06 01:04 | 40.46159 | -83.61955 | 32852 ft | 510 kts | 34° |
| 2026-05-06 01:05 | 40.51206 | -83.55437 | 32854 ft | 511 kts | 34° |
| 2026-05-06 01:05 | 40.56249 | -83.48909 | 32857 ft | 508 kts | 34° |
| 2026-05-06 01:06 | 40.61297 | -83.42358 | 32856 ft | 509 kts | 34° |
| 2026-05-06 01:06 | 40.66316 | -83.35834 | 32856 ft | 508 kts | 34° |
| 2026-05-06 01:07 | 40.71193 | -83.28977 | 32860 ft | 521 kts | 44° |
| 2026-05-06 01:07 | 40.75597 | -83.21474 | 32852 ft | 520 kts | 44° |
| 2026-05-06 01:08 | 40.80033 | -83.13922 | 32845 ft | 522 kts | 44° |
| 2026-05-06 01:08 | 40.84471 | -83.06348 | 32856 ft | 522 kts | 44° |
| 2026-05-06 01:09 | 40.88899 | -82.98772 | 32844 ft | 520 kts | 44° |
| 2026-05-06 01:09 | 40.93307 | -82.91213 | 32851 ft | 520 kts | 44° |
| 2026-05-06 01:10 | 40.97680 | -82.83695 | 32852 ft | 518 kts | 44° |
| 2026-05-06 01:10 | 41.02067 | -82.76134 | 32854 ft | 518 kts | 44° |
| 2026-05-06 01:11 | 41.06456 | -82.68552 | 32857 ft | 517 kts | 45° |
| 2026-05-06 01:11 | 41.10824 | -82.60986 | 32866 ft | 520 kts | 44° |
| 2026-05-06 01:12 | 41.14976 | -82.53104 | 32852 ft | 528 kts | 54° |
| 2026-05-06 01:12 | 41.18453 | -82.44537 | 32856 ft | 529 kts | 55° |
| 2026-05-06 01:13 | 41.21925 | -82.35944 | 32861 ft | 527 kts | 55° |
| 2026-05-06 01:13 | 41.25371 | -82.27396 | 32856 ft | 528 kts | 56° |
| 2026-05-06 01:14 | 41.30563 | -82.14463 | 32869 ft | 528 kts | 57° |
| 2026-05-06 01:14 | 41.33579 | -82.05569 | 32872 ft | 539 kts | 70° |
| 2026-05-06 01:15 | 41.34846 | -81.95746 | 32871 ft | 542 kts | 87° |
| 2026-05-06 01:15 | 41.35217 | -81.85715 | 32867 ft | 544 kts | 85° |
| 2026-05-06 01:16 | 41.35678 | -81.75777 | 32866 ft | 540 kts | 85° |
| 2026-05-06 01:16 | 41.36133 | -81.65816 | 32862 ft | 541 kts | 85° |
| 2026-05-06 01:17 | 41.36579 | -81.55904 | 32873 ft | 540 kts | 85° |
| 2026-05-06 01:17 | 41.37018 | -81.45953 | 32872 ft | 538 kts | 85° |
| 2026-05-06 01:18 | 41.37447 | -81.36015 | 32880 ft | 537 kts | 85° |
| 2026-05-06 01:18 | 41.37867 | -81.26115 | 32862 ft | 538 kts | 86° |
| 2026-05-06 01:19 | 41.38276 | -81.16277 | 32861 ft | 536 kts | 86° |
| 2026-05-06 01:19 | 41.38676 | -81.06387 | 32862 ft | 537 kts | 85° |
| 2026-05-06 01:20 | 41.39071 | -80.96471 | 32851 ft | 537 kts | 85° |
| 2026-05-06 01:20 | 41.39453 | -80.86655 | 32867 ft | 534 kts | 85° |
| 2026-05-06 01:21 | 41.39827 | -80.76836 | 32860 ft | 534 kts | 85° |
| 2026-05-06 01:21 | 41.40194 | -80.67001 | 32871 ft | 534 kts | 86° |
| 2026-05-06 01:22 | 41.40551 | -80.57143 | 32871 ft | 533 kts | 86° |
| 2026-05-06 01:22 | 41.40899 | -80.47352 | 32863 ft | 532 kts | 85° |
| 2026-05-06 01:23 | 41.41240 | -80.37511 | 32869 ft | 533 kts | 85° |
| 2026-05-06 01:23 | 41.41571 | -80.27696 | 32845 ft | 530 kts | 86° |
| 2026-05-06 01:24 | 41.41894 | -80.17906 | 32850 ft | 530 kts | 87° |
| 2026-05-06 01:24 | 41.41794 | -80.08154 | 32844 ft | 530 kts | 97° |
| 2026-05-06 01:25 | 41.40881 | -79.98457 | 32846 ft | 529 kts | 98° |
| 2026-05-06 01:25 | 41.39939 | -79.88780 | 32868 ft | 528 kts | 98° |
| 2026-05-06 01:26 | 41.38992 | -79.79142 | 32872 ft | 529 kts | 97° |
| 2026-05-06 01:26 | 41.38031 | -79.69452 | 32867 ft | 527 kts | 97° |
| 2026-05-06 01:27 | 41.37072 | -79.59863 | 32874 ft | 528 kts | 98° |
| 2026-05-06 01:27 | 41.36096 | -79.50189 | 32873 ft | 526 kts | 97° |
| 2026-05-06 01:28 | 41.35115 | -79.40549 | 32877 ft | 528 kts | 98° |
| 2026-05-06 01:28 | 41.34132 | -79.30962 | 32859 ft | 524 kts | 98° |
| 2026-05-06 01:29 | 41.33139 | -79.21367 | 32874 ft | 526 kts | 99° |
| 2026-05-06 01:29 | 41.32139 | -79.11780 | 32869 ft | 525 kts | 98° |
| 2026-05-06 01:30 | 41.31130 | -79.02196 | 32874 ft | 523 kts | 98° |
| 2026-05-06 01:30 | 41.30121 | -78.92668 | 32866 ft | 521 kts | 98° |
| 2026-05-06 01:31 | 41.29102 | -78.83151 | 32873 ft | 524 kts | 98° |
| 2026-05-06 01:31 | 41.28070 | -78.73573 | 32874 ft | 522 kts | 98° |
| 2026-05-06 01:32 | 41.27037 | -78.64077 | 32870 ft | 521 kts | 98° |
| 2026-05-06 01:32 | 41.25993 | -78.54539 | 32873 ft | 522 kts | 98° |
| 2026-05-06 01:33 | 41.24944 | -78.45039 | 32867 ft | 522 kts | 98° |
| 2026-05-06 01:33 | 41.23880 | -78.35476 | 32871 ft | 522 kts | 98° |
| 2026-05-06 01:34 | 41.22816 | -78.25985 | 32869 ft | 522 kts | 98° |
| 2026-05-06 01:34 | 41.21745 | -78.16496 | 32860 ft | 521 kts | 99° |
| 2026-05-06 01:35 | 41.20604 | -78.07055 | 32866 ft | 522 kts | 100° |
| 2026-05-06 01:35 | 41.20023 | -78.02363 | 32850 ft | 503 kts | 100° |
| 2026-05-06 01:35 | 41.19472 | -77.97935 | 32849 ft | 480 kts | 99° |
| 2026-05-06 01:36 | 41.18941 | -77.93670 | 32826 ft | 459 kts | 100° |
| 2026-05-06 01:36 | 41.18423 | -77.89524 | 32856 ft | 455 kts | 100° |
| 2026-05-06 01:36 | 41.17375 | -77.81179 | 32881 ft | 462 kts | 99° |
| 2026-05-06 01:37 | 41.16312 | -77.72768 | 32866 ft | 462 kts | 99° |
| 2026-05-06 01:37 | 41.15246 | -77.64372 | 32869 ft | 462 kts | 100° |
| 2026-05-06 01:38 | 41.14178 | -77.56016 | 32884 ft | 461 kts | 99° |
| 2026-05-06 01:38 | 41.13105 | -77.47675 | 32885 ft | 461 kts | 99° |
| 2026-05-06 01:39 | 41.12029 | -77.39355 | 32874 ft | 458 kts | 100° |
| 2026-05-06 01:39 | 41.10955 | -77.31097 | 32875 ft | 457 kts | 101° |
| 2026-05-06 01:40 | 41.09862 | -77.22749 | 32418 ft | 464 kts | 100° |
| 2026-05-06 01:40 | 41.09309 | -77.18549 | 31495 ft | 466 kts | 101° |
| 2026-05-06 01:40 | 41.08761 | -77.14384 | 30881 ft | 458 kts | 101° |
| 2026-05-06 01:41 | 41.08219 | -77.10290 | 30220 ft | 452 kts | 101° |
| 2026-05-06 01:41 | 41.07261 | -77.03073 | 29057 ft | 447 kts | 101° |
| 2026-05-06 01:41 | 41.06723 | -76.99036 | 28435 ft | 448 kts | 102° |
| 2026-05-06 01:42 | 41.06177 | -76.94952 | 27798 ft | 450 kts | 102° |
| 2026-05-06 01:42 | 41.05629 | -76.90861 | 27169 ft | 452 kts | 102° |
| 2026-05-06 01:42 | 41.05082 | -76.86787 | 26538 ft | 450 kts | 102° |
| 2026-05-06 01:42 | 41.04537 | -76.82743 | 25917 ft | 451 kts | 102° |
| 2026-05-06 01:43 | 41.03983 | -76.78640 | 25282 ft | 449 kts | 103° |
| 2026-05-06 01:43 | 41.03439 | -76.74628 | 24664 ft | 450 kts | 103° |
| 2026-05-06 01:43 | 41.02887 | -76.70570 | 24040 ft | 450 kts | 103° |
| 2026-05-06 01:43 | 41.02293 | -76.66509 | 23407 ft | 447 kts | 109° |
| 2026-05-06 01:44 | 41.01393 | -76.62595 | 22808 ft | 445 kts | 111° |
| 2026-05-06 01:44 | 41.00463 | -76.58704 | 22211 ft | 448 kts | 111° |
| 2026-05-06 01:44 | 40.99529 | -76.54806 | 21609 ft | 447 kts | 111° |
| 2026-05-06 01:44 | 40.98579 | -76.50855 | 21013 ft | 448 kts | 111° |
| 2026-05-06 01:45 | 40.97645 | -76.46970 | 20411 ft | 448 kts | 111° |
| 2026-05-06 01:45 | 40.96704 | -76.43070 | 19802 ft | 448 kts | 111° |
| 2026-05-06 01:45 | 40.95763 | -76.39168 | 19193 ft | 442 kts | 111° |
| 2026-05-06 01:45 | 40.94850 | -76.35383 | 18913 ft | 419 kts | 112° |
| 2026-05-06 01:46 | 40.93990 | -76.31830 | 18868 ft | 392 kts | 113° |
| 2026-05-06 01:46 | 40.93190 | -76.28529 | 18865 ft | 368 kts | 113° |
| 2026-05-06 01:46 | 40.92407 | -76.25314 | 18887 ft | 363 kts | 114° |
| 2026-05-06 01:46 | 40.91628 | -76.22121 | 18906 ft | 370 kts | 113° |
| 2026-05-06 01:47 | 40.90844 | -76.18902 | 18904 ft | 372 kts | 114° |
| 2026-05-06 01:47 | 40.90048 | -76.15639 | 18897 ft | 372 kts | 113° |
| 2026-05-06 01:47 | 40.89254 | -76.12389 | 18920 ft | 373 kts | 113° |
| 2026-05-06 01:47 | 40.88462 | -76.09148 | 18900 ft | 371 kts | 114° |
| 2026-05-06 01:48 | 40.87672 | -76.05925 | 18908 ft | 372 kts | 113° |
| 2026-05-06 01:48 | 40.86879 | -76.02692 | 18911 ft | 372 kts | 113° |
| 2026-05-06 01:48 | 40.86074 | -75.99412 | 18918 ft | 372 kts | 113° |
| 2026-05-06 01:48 | 40.85280 | -75.96184 | 18913 ft | 372 kts | 113° |
| 2026-05-06 01:49 | 40.84485 | -75.92957 | 18913 ft | 370 kts | 113° |
| 2026-05-06 01:49 | 40.83687 | -75.89724 | 18931 ft | 372 kts | 113° |
| 2026-05-06 01:49 | 40.82879 | -75.86456 | 18922 ft | 383 kts | 112° |
| 2026-05-06 01:49 | 40.82031 | -75.83031 | 18950 ft | 402 kts | 112° |
| 2026-05-06 01:50 | 40.81150 | -75.79477 | 19020 ft | 416 kts | 112° |
| 2026-05-06 01:50 | 40.80246 | -75.75828 | 19097 ft | 424 kts | 112° |
| 2026-05-06 01:50 | 40.79330 | -75.72139 | 19188 ft | 430 kts | 112° |
| 2026-05-06 01:50 | 40.78396 | -75.68380 | 19185 ft | 430 kts | 112° |
| 2026-05-06 01:51 | 40.77468 | -75.64655 | 18693 ft | 422 kts | 112° |
| 2026-05-06 01:51 | 40.76564 | -75.61030 | 18245 ft | 416 kts | 112° |
| 2026-05-06 01:51 | 40.75661 | -75.57428 | 17776 ft | 424 kts | 112° |
| 2026-05-06 01:51 | 40.74734 | -75.53724 | 17316 ft | 424 kts | 112° |
| 2026-05-06 01:52 | 40.73819 | -75.50073 | 16869 ft | 422 kts | 112° |
| 2026-05-06 01:52 | 40.72902 | -75.46424 | 16417 ft | 419 kts | 111° |
| 2026-05-06 01:52 | 40.72110 | -75.42730 | 15962 ft | 419 kts | 107° |
| 2026-05-06 01:52 | 40.71377 | -75.38997 | 15510 ft | 417 kts | 107° |
| 2026-05-06 01:53 | 40.70647 | -75.35315 | 15057 ft | 416 kts | 108° |
| 2026-05-06 01:53 | 40.69922 | -75.31668 | 14598 ft | 412 kts | 108° |
| 2026-05-06 01:53 | 40.69206 | -75.28078 | 14141 ft | 409 kts | 108° |
| 2026-05-06 01:53 | 40.68486 | -75.24477 | 13722 ft | 407 kts | 108° |
| 2026-05-06 01:54 | 40.67770 | -75.20895 | 13262 ft | 404 kts | 108° |
| 2026-05-06 01:54 | 40.67045 | -75.17297 | 12865 ft | 402 kts | 109° |
| 2026-05-06 01:54 | 40.65887 | -75.14099 | 12452 ft | 387 kts | 131° |
| 2026-05-06 01:54 | 40.64122 | -75.11431 | 12038 ft | 386 kts | 137° |
| 2026-05-06 01:55 | 40.62300 | -75.08820 | 11592 ft | 385 kts | 137° |
| 2026-05-06 01:55 | 40.60511 | -75.06267 | 11135 ft | 383 kts | 137° |
| 2026-05-06 01:55 | 40.58723 | -75.03722 | 10944 ft | 378 kts | 137° |
| 2026-05-06 01:55 | 40.57021 | -75.01065 | 10895 ft | 385 kts | 125° |
| 2026-05-06 01:56 | 40.55916 | -74.97819 | 10910 ft | 391 kts | 114° |
| 2026-05-06 01:56 | 40.54924 | -74.94476 | 10918 ft | 392 kts | 114° |
| 2026-05-06 01:56 | 40.53940 | -74.91171 | 10907 ft | 392 kts | 115° |
| 2026-05-06 01:56 | 40.52949 | -74.87852 | 10901 ft | 392 kts | 115° |
| 2026-05-06 01:57 | 40.51947 | -74.84505 | 10904 ft | 391 kts | 114° |
| 2026-05-06 01:57 | 40.51269 | -74.81068 | 10860 ft | 396 kts | 95° |
| 2026-05-06 01:57 | 40.51648 | -74.77460 | 10913 ft | 401 kts | 70° |
| 2026-05-06 01:57 | 40.53039 | -74.74344 | 10924 ft | 400 kts | 47° |
| 2026-05-06 01:58 | 40.54825 | -74.71548 | 10907 ft | 401 kts | 54° |
| 2026-05-06 01:58 | 40.56327 | -74.68481 | 10910 ft | 401 kts | 58° |
| 2026-05-06 01:58 | 40.57774 | -74.65312 | 10904 ft | 402 kts | 59° |
| 2026-05-06 01:58 | 40.59171 | -74.62176 | 10895 ft | 389 kts | 59° |
| 2026-05-06 01:59 | 40.60508 | -74.59152 | 10898 ft | 384 kts | 59° |
| 2026-05-06 01:59 | 40.61853 | -74.56099 | 10901 ft | 384 kts | 59° |
| 2026-05-06 01:59 | 40.63180 | -74.53081 | 10902 ft | 383 kts | 59° |
| 2026-05-06 01:59 | 40.64490 | -74.50100 | 10883 ft | 364 kts | 59° |
| 2026-05-06 02:00 | 40.65712 | -74.47313 | 10874 ft | 340 kts | 59° |
| 2026-05-06 02:00 | 40.66849 | -74.44720 | 10884 ft | 320 kts | 59° |
| 2026-05-06 02:00 | 40.67965 | -74.42172 | 10906 ft | 320 kts | 59° |
| 2026-05-06 02:00 | 40.69072 | -74.39644 | 10909 ft | 322 kts | 59° |
| 2026-05-06 02:01 | 40.70200 | -74.37064 | 10888 ft | 317 kts | 59° |
| 2026-05-06 02:01 | 40.71276 | -74.34600 | 10535 ft | 311 kts | 59° |
| 2026-05-06 02:01 | 40.72367 | -74.32101 | 9959 ft | 314 kts | 59° |
| 2026-05-06 02:01 | 40.73454 | -74.29609 | 9331 ft | 318 kts | 59° |
| 2026-05-06 02:02 | 40.74556 | -74.27083 | 8750 ft | 319 kts | 60° |
| 2026-05-06 02:02 | 40.75657 | -74.24553 | 8220 ft | 319 kts | 60° |
| 2026-05-06 02:02 | 40.76757 | -74.22024 | 7719 ft | 317 kts | 59° |
| 2026-05-06 02:02 | 40.77855 | -74.19500 | 7195 ft | 317 kts | 60° |
| 2026-05-06 02:03 | 40.78945 | -74.16989 | 6707 ft | 316 kts | 60° |
| 2026-05-06 02:03 | 40.80030 | -74.14490 | 6201 ft | 316 kts | 60° |
| 2026-05-06 02:03 | 40.81114 | -74.11990 | 5720 ft | 314 kts | 60° |
| 2026-05-06 02:03 | 40.82194 | -74.09498 | 5256 ft | 312 kts | 61° |
| 2026-05-06 02:04 | 40.83262 | -74.07031 | 4812 ft | 310 kts | 61° |
| 2026-05-06 02:04 | 40.84329 | -74.04566 | 4364 ft | 308 kts | 62° |
| 2026-05-06 02:04 | 40.85396 | -74.02097 | 3897 ft | 307 kts | 62° |
| 2026-05-06 02:04 | 40.86435 | -73.99693 | 3447 ft | 305 kts | 62° |
| 2026-05-06 02:05 | 40.87485 | -73.97258 | 3020 ft | 302 kts | 63° |
| 2026-05-06 02:05 | 40.88509 | -73.94885 | 2669 ft | 296 kts | 63° |
| 2026-05-06 02:05 | 40.89528 | -73.92516 | 2444 ft | 294 kts | 63° |
| 2026-05-06 02:05 | 40.90544 | -73.90157 | 2414 ft | 293 kts | 63° |
| 2026-05-06 02:06 | 40.91543 | -73.87837 | 2401 ft | 281 kts | 63° |
| 2026-05-06 02:06 | 40.92457 | -73.85716 | 2363 ft | 251 kts | 64° |
| 2026-05-06 02:06 | 40.92913 | -73.83730 | 2395 ft | 210 kts | 105° |
| 2026-05-06 02:06 | 40.92432 | -73.82072 | 2607 ft | 190 kts | 133° |
| 2026-05-06 02:07 | 40.91677 | -73.80623 | 2427 ft | 187 kts | 138° |
| 2026-05-06 02:07 | 40.90886 | -73.79275 | 2426 ft | 185 kts | 140° |
| 2026-05-06 02:07 | 40.90081 | -73.77986 | 2462 ft | 173 kts | 142° |
| 2026-05-06 02:07 | 40.89334 | -73.76833 | 2430 ft | 163 kts | 145° |
| 2026-05-06 02:08 | 40.88489 | -73.76012 | 2230 ft | 141 kts | 177° |
| 2026-05-06 02:08 | 40.87623 | -73.76257 | 2106 ft | 127 kts | 213° |
| 2026-05-06 02:08 | 40.86908 | -73.76923 | 1913 ft | 123 kts | 217° |
| 2026-05-06 02:08 | 40.86242 | -73.77596 | 1705 ft | 117 kts | 217° |
| 2026-05-06 02:09 | 40.85637 | -73.78237 | 1594 ft | 110 kts | 218° |
| 2026-05-06 02:09 | 40.85048 | -73.78882 | 1501 ft | 109 kts | 218° |
| 2026-05-06 02:09 | 40.84460 | -73.79540 | 1406 ft | 111 kts | 219° |
| 2026-05-06 02:09 | 40.83873 | -73.80241 | 1282 ft | 114 kts | 220° |
| 2026-05-06 02:10 | 40.83299 | -73.80962 | 1164 ft | 115 kts | 221° |